createdAt,value
2023-09-17T00:01:08.526Z,99331.98
2023-09-17T00:17:33.392Z,99326.66
2023-09-17T00:22:41.090Z,99325.23
2023-09-17T00:27:49.297Z,99326.91
2023-09-17T00:32:56.809Z,99337.08
2023-09-17T00:38:06.742Z,99340.07
2023-09-17T00:43:14.866Z,99330.98
2023-09-17T00:48:23.422Z,99324.11
2023-09-17T00:53:31.170Z,99323.94
2023-09-17T00:58:40.193Z,99326.50
2023-09-17T01:03:48.480Z,99324.75
2023-09-17T01:08:56.252Z,99326.83
2023-09-17T01:14:17.379Z,99324.78
2023-09-17T01:19:29.717Z,99328.07
2023-09-17T01:24:47.326Z,99335.47
2023-09-17T01:29:56.459Z,99331.65
2023-09-17T01:35:04.391Z,99325.73
2023-09-17T01:40:15.474Z,99323.06
2023-09-17T01:45:24.176Z,99319.87
2023-09-17T01:50:32.962Z,99318.02
2023-09-17T01:55:40.690Z,99320.50
2023-09-17T02:00:49.376Z,99326.69
2023-09-17T02:05:56.821Z,99334.59
2023-09-17T02:11:06.088Z,99330.36
2023-09-17T02:16:14.138Z,99328.04
2023-09-17T02:21:22.107Z,99319.43
2023-09-17T02:26:29.716Z,99312.17
2023-09-17T02:31:37.325Z,99309.91
2023-09-17T02:36:45.327Z,99312.81
2023-09-17T02:41:52.426Z,99315.35
2023-09-17T02:46:59.641Z,99313.55
2023-09-17T02:52:07.975Z,99317.23
2023-09-17T02:57:15.285Z,99320.15
2023-09-17T03:02:22.539Z,99320.33
2023-09-17T03:07:29.827Z,99320.61
2023-09-17T03:12:37.619Z,99319.44
2023-09-17T03:23:16.469Z,99318.38
2023-09-17T03:28:24.054Z,99314.73
2023-09-17T03:33:32.221Z,99316.41
2023-09-17T03:38:39.679Z,99316.52
2023-09-17T03:43:47.443Z,99312.48
2023-09-17T03:48:54.860Z,99310.73
2023-09-17T03:54:03.091Z,99315.89
2023-09-17T03:59:10.586Z,99317.45
2023-09-17T04:04:17.837Z,99313.18
2023-09-17T04:09:25.573Z,99312.11
2023-09-17T04:14:33.726Z,99319.89
2023-09-17T04:19:41.095Z,99318.55
2023-09-17T04:24:54.889Z,99323.31
2023-09-17T04:30:08.514Z,99324.55
2023-09-17T04:35:19.193Z,99324.11
2023-09-17T04:40:29.563Z,99328.87
2023-09-17T04:45:38.793Z,99331.64
2023-09-17T04:50:48.174Z,99333.16
2023-09-17T04:55:56.419Z,99336.45
2023-09-17T05:01:05.177Z,99338.13
2023-09-17T05:06:12.451Z,99346.10
2023-09-17T05:11:19.769Z,99358.12
2023-09-17T05:16:27.124Z,99361.52
2023-09-17T05:21:34.590Z,99362.15
2023-09-17T05:26:42.175Z,99368.52
2023-09-17T05:31:50.029Z,99369.26
2023-09-17T05:36:58.334Z,99374.71
2023-09-17T05:42:06.284Z,99381.34
2023-09-17T05:47:14.045Z,99386.79
2023-09-17T05:52:22.675Z,99388.68
2023-09-17T05:57:30.196Z,99386.84
2023-09-17T06:02:37.726Z,99387.11
2023-09-17T06:07:45.337Z,99386.80
2023-09-17T06:12:52.638Z,99394.31
2023-09-17T06:18:02.929Z,99395.61
2023-09-17T06:23:10.479Z,99396.30
2023-09-17T06:28:18.470Z,99401.71
2023-09-17T06:33:25.890Z,99402.98
2023-09-17T06:38:33.691Z,99406.15
2023-09-17T06:43:41.072Z,99408.45
2023-09-17T06:48:48.547Z,99404.08
2023-09-17T06:53:55.985Z,99401.88
2023-09-17T06:59:05.262Z,99406.59
2023-09-17T07:04:13.602Z,99410.13
2023-09-17T07:09:21.424Z,99405.94
2023-09-17T07:14:29.262Z,99410.60
2023-09-17T07:19:37.226Z,99413.92
2023-09-17T07:24:44.833Z,99412.80
2023-09-17T07:29:53.566Z,99410.13
2023-09-17T07:35:02.952Z,99411.19
2023-09-17T07:40:12.644Z,99418.48
2023-09-17T07:45:20.214Z,99425.02
2023-09-17T07:50:27.683Z,99418.60
2023-09-17T07:55:35.349Z,99420.91
2023-09-17T08:00:42.971Z,99422.17
2023-09-17T08:05:50.866Z,99422.86
2023-09-17T08:10:58.984Z,99422.13
2023-09-17T08:16:07.108Z,99424.75
2023-09-17T08:21:15.071Z,99424.59
2023-09-17T08:26:23.110Z,99418.65
2023-09-17T08:31:30.438Z,99415.84
2023-09-17T08:36:43.005Z,99414.27
2023-09-17T08:41:51.664Z,99417.29
2023-09-17T08:47:00.621Z,99420.31
2023-09-17T08:52:12.026Z,99417.67
2023-09-17T08:57:24.015Z,99415.75
2023-09-17T09:02:35.252Z,99412.11
2023-09-17T09:07:43.841Z,99414.20
2023-09-17T09:12:52.691Z,99414.63
2023-09-17T09:18:00.134Z,99407.36
2023-09-17T09:23:08.770Z,99409.95
2023-09-17T09:28:16.176Z,99406.17
2023-09-17T09:33:25.022Z,99406.73
2023-09-17T09:38:35.035Z,99404.14
2023-09-17T09:43:45.415Z,99397.75
2023-09-17T09:48:53.648Z,99397.45
2023-09-17T09:54:01.053Z,99391.12
2023-09-17T09:59:09.280Z,99390.98
2023-09-17T10:04:16.815Z,99389.83
2023-09-17T10:09:25.086Z,99386.64
2023-09-17T10:14:37.316Z,99382.76
2023-09-17T10:19:48.827Z,99378.02
2023-09-17T10:24:57.107Z,99379.52
2023-09-17T10:30:06.238Z,99381.18
2023-09-17T10:35:15.857Z,99382.73
2023-09-17T10:40:23.918Z,99380.89
2023-09-17T10:45:36.552Z,99377.73
2023-09-17T10:50:45.516Z,99374.33
2023-09-17T10:55:59.118Z,99374.27
2023-09-17T11:01:08.214Z,99370.90
2023-09-17T11:06:25.542Z,99365.85
2023-09-17T11:11:36.194Z,99369.45
2023-09-17T11:16:44.493Z,99367.54
2023-09-17T11:22:09.903Z,99364.84
2023-09-17T11:27:22.996Z,99359.63
2023-09-17T11:32:31.044Z,99360.59
2023-09-17T11:37:38.954Z,99361.35
2023-09-17T11:42:47.065Z,99360.45
2023-09-17T11:47:54.614Z,99356.33
2023-09-17T11:53:08.832Z,99353.54
2023-09-17T11:58:21.848Z,99353.63
2023-09-17T12:03:30.183Z,99344.73
2023-09-17T12:08:37.970Z,99343.38
2023-09-17T12:13:46.461Z,99339.59
2023-09-17T12:19:03.696Z,99337.11
2023-09-17T12:24:30.610Z,99330.91
2023-09-17T12:29:38.763Z,99330.01
2023-09-17T12:34:46.413Z,99326.46
2023-09-17T12:39:55.131Z,99325.36
2023-09-17T12:45:02.788Z,99325.23
2023-09-17T12:50:12.036Z,99325.31
2023-09-17T12:55:20.492Z,99318.84
2023-09-17T13:00:27.969Z,99319.27
2023-09-17T13:05:35.449Z,99316.59
2023-09-17T13:10:43.121Z,99313.08
2023-09-17T13:15:51.040Z,99311.92
2023-09-17T13:20:58.845Z,99311.19
2023-09-17T13:26:06.466Z,99314.26
2023-09-17T13:31:14.810Z,99311.70
2023-09-17T13:36:24.232Z,99305.73
2023-09-17T13:41:33.202Z,99303.20
2023-09-17T13:46:49.177Z,99303.60
2023-09-17T13:51:57.066Z,99302.84
2023-09-17T13:57:04.841Z,99298.86
2023-09-17T14:02:14.173Z,99296.29
2023-09-17T14:07:22.045Z,99293.37
2023-09-17T14:12:29.682Z,99291.99
2023-09-17T14:17:37.228Z,99286.89
2023-09-17T14:22:44.800Z,99290.14
2023-09-17T14:27:53.472Z,99294.89
2023-09-17T14:33:02.547Z,99296.40
2023-09-17T14:38:10.250Z,99295.36
2023-09-17T14:43:17.548Z,99296.59
2023-09-17T14:48:27.198Z,99298.36
2023-09-17T14:53:35.056Z,99299.02
2023-09-17T14:58:42.952Z,99301.40
2023-09-17T15:03:50.905Z,99298.45
2023-09-17T15:08:59.986Z,99294.29
2023-09-17T15:14:07.775Z,99291.31
2023-09-17T15:19:15.958Z,99291.98
2023-09-17T15:24:23.395Z,99289.63
2023-09-17T15:29:31.202Z,99289.33
2023-09-17T15:34:42.033Z,99287.88
2023-09-17T15:39:49.327Z,99284.34
2023-09-17T15:44:57.228Z,99284.25
2023-09-17T15:50:05.051Z,99284.44
2023-09-17T15:55:14.707Z,99284.05
2023-09-17T16:00:22.530Z,99280.43
2023-09-17T16:05:30.370Z,99282.36
2023-09-17T16:10:38.243Z,99285.21
2023-09-17T16:15:45.757Z,99283.65
2023-09-17T16:20:53.481Z,99284.58
2023-09-17T16:26:01.983Z,99283.20
2023-09-17T16:31:09.753Z,99282.50
2023-09-17T16:36:18.297Z,99280.93
2023-09-17T16:41:25.941Z,99281.34
2023-09-17T16:46:34.586Z,99279.77
2023-09-17T16:51:48.101Z,99280.55
2023-09-17T16:56:56.011Z,99280.40
2023-09-17T17:02:03.777Z,99269.20
2023-09-17T17:07:11.028Z,99272.76
2023-09-17T17:12:18.561Z,99271.74
2023-09-17T17:17:26.252Z,99281.32
2023-09-17T17:22:45.338Z,99283.80
2023-09-17T17:27:53.018Z,99285.04
2023-09-17T17:33:00.364Z,99295.09
2023-09-17T17:38:08.859Z,99295.53
2023-09-17T17:43:16.991Z,99296.02
2023-09-17T17:48:24.700Z,99300.50
2023-09-17T17:53:37.401Z,99303.06
2023-09-17T17:58:45.790Z,99303.45
2023-09-17T18:03:53.941Z,99308.77
2023-09-17T18:09:02.092Z,99306.98
2023-09-17T18:14:09.950Z,99310.52
2023-09-17T18:24:11.435Z,99312.80
2023-09-17T18:29:22.304Z,99317.34
2023-09-17T18:34:30.997Z,99318.52
2023-09-17T18:39:39.208Z,99321.29
2023-09-17T18:44:47.283Z,99322.48
2023-09-17T18:49:55.432Z,99327.20
2023-09-17T18:55:03.833Z,99335.48
2023-09-17T19:00:14.660Z,99334.59
2023-09-17T19:05:22.463Z,99334.75
2023-09-17T19:10:29.962Z,99340.36
2023-09-17T19:15:39.338Z,99336.17
2023-09-17T19:20:48.197Z,99333.60
2023-09-17T19:25:58.009Z,99337.30
2023-09-17T19:31:06.122Z,99332.89
2023-09-17T19:36:14.259Z,99333.48
2023-09-17T19:41:24.528Z,99331.70
2023-09-17T19:46:33.110Z,99329.67
2023-09-17T19:51:40.972Z,99329.99
2023-09-17T19:56:49.253Z,99329.02
2023-09-17T20:01:57.294Z,99322.70
2023-09-17T20:07:05.233Z,99319.79
2023-09-17T20:12:12.997Z,99322.02
2023-09-17T20:17:20.757Z,99317.52
2023-09-17T20:22:31.474Z,99314.21
2023-09-17T20:27:40.640Z,99315.55
2023-09-17T20:32:48.109Z,99312.50
2023-09-17T20:37:56.182Z,99311.94
2023-09-17T20:43:03.802Z,99313.97
2023-09-17T20:48:11.446Z,99310.92
2023-09-17T20:53:19.104Z,99311.33
2023-09-17T20:58:26.984Z,99308.58
2023-09-17T21:03:35.091Z,99307.39
2023-09-17T21:08:42.812Z,99315.34
2023-09-17T21:13:50.544Z,99314.66
2023-09-17T21:18:58.112Z,99321.58
2023-09-17T21:24:06.111Z,99322.65
2023-09-17T21:29:14.000Z,99323.35
2023-09-17T21:44:07.501Z,99315.33
2023-09-17T21:49:16.792Z,99311.14
2023-09-17T21:54:24.583Z,99304.02
2023-09-17T21:59:31.820Z,99293.94
2023-09-17T22:04:38.912Z,99287.77
2023-09-17T22:09:46.489Z,99284.88
2023-09-17T22:14:54.258Z,99283.64
2023-09-17T22:25:31.372Z,99280.16
2023-09-17T22:30:38.860Z,99282.19
2023-09-17T22:35:49.008Z,99280.58
2023-09-17T22:40:56.253Z,99278.35
2023-09-17T22:46:07.537Z,99281.20
2023-09-17T22:51:14.864Z,99278.83
2023-09-17T22:56:22.997Z,99279.66
2023-09-17T23:01:31.124Z,99279.69
2023-09-17T23:06:38.647Z,99281.91
2023-09-17T23:11:46.455Z,99281.27
2023-09-17T23:16:54.600Z,99278.73
2023-09-17T23:22:07.038Z,99278.80
2023-09-17T23:27:14.481Z,99275.64
2023-09-17T23:32:22.487Z,99276.80
2023-09-17T23:37:30.044Z,99269.61
2023-09-17T23:42:37.769Z,99271.86
2023-09-17T23:47:45.437Z,99279.89
2023-09-17T23:52:53.186Z,99278.48
2023-09-17T23:58:01.402Z,99276.45
